sensor_id;sensor_type;location;lat;lon;timestamp;temperature;humidity
58519;DHT22;44310;48.106;12.008;2022-07-24T00:00:07;23.10;90.70
58519;DHT22;44310;48.106;12.008;2022-07-24T00:02:35;23.00;90.60
58519;DHT22;44310;48.106;12.008;2022-07-24T00:05:02;23.10;90.60
58519;DHT22;44310;48.106;12.008;2022-07-24T00:07:30;23.10;90.40
58519;DHT22;44310;48.106;12.008;2022-07-24T00:09:57;23.10;90.40
58519;DHT22;44310;48.106;12.008;2022-07-24T00:12:25;23.10;90.30
58519;DHT22;44310;48.106;12.008;2022-07-24T00:14:52;23.10;90.30
58519;DHT22;44310;48.106;12.008;2022-07-24T00:17:19;23.10;90.20
58519;DHT22;44310;48.106;12.008;2022-07-24T00:19:47;23.10;90.10
58519;DHT22;44310;48.106;12.008;2022-07-24T00:22:14;23.10;90.10
58519;DHT22;44310;48.106;12.008;2022-07-24T00:24:42;23.00;90.00
58519;DHT22;44310;48.106;12.008;2022-07-24T00:27:10;23.10;90.00
58519;DHT22;44310;48.106;12.008;2022-07-24T00:29:37;23.10;90.10
58519;DHT22;44310;48.106;12.008;2022-07-24T00:32:05;23.10;90.40
58519;DHT22;44310;48.106;12.008;2022-07-24T00:34:32;23.10;90.60
58519;DHT22;44310;48.106;12.008;2022-07-24T00:36:59;23.10;90.70
58519;DHT22;44310;48.106;12.008;2022-07-24T00:39:27;23.10;90.80
58519;DHT22;44310;48.106;12.008;2022-07-24T00:41:54;23.10;90.80
58519;DHT22;44310;48.106;12.008;2022-07-24T00:44:22;23.10;90.80
58519;DHT22;44310;48.106;12.008;2022-07-24T00:46:49;23.10;90.80
58519;DHT22;44310;48.106;12.008;2022-07-24T00:49:20;23.10;90.80
58519;DHT22;44310;48.106;12.008;2022-07-24T00:51:53;23.10;90.70
58519;DHT22;44310;48.106;12.008;2022-07-24T00:54:21;23.00;90.50
58519;DHT22;44310;48.106;12.008;2022-07-24T00:56:51;23.00;90.50
58519;DHT22;44310;48.106;12.008;2022-07-24T00:59:19;23.00;90.50
58519;DHT22;44310;48.106;12.008;2022-07-24T01:01:48;23.00;90.50
58519;DHT22;44310;48.106;12.008;2022-07-24T01:04:17;23.00;90.40
58519;DHT22;44310;48.106;12.008;2022-07-24T01:06:45;23.00;90.40
58519;DHT22;44310;48.106;12.008;2022-07-24T01:09:13;23.00;90.40
58519;DHT22;44310;48.106;12.008;2022-07-24T01:11:41;22.90;90.40
58519;DHT22;44310;48.106;12.008;2022-07-24T01:14:09;23.00;90.40
58519;DHT22;44310;48.106;12.008;2022-07-24T01:16:38;23.00;90.60
58519;DHT22;44310;48.106;12.008;2022-07-24T01:19:06;23.00;90.70
58519;DHT22;44310;48.106;12.008;2022-07-24T01:21:34;23.10;90.80
58519;DHT22;44310;48.106;12.008;2022-07-24T01:24:01;23.10;90.80
58519;DHT22;44310;48.106;12.008;2022-07-24T01:26:29;23.10;90.70
58519;DHT22;44310;48.106;12.008;2022-07-24T01:28:56;23.00;90.60
58519;DHT22;44310;48.106;12.008;2022-07-24T01:31:23;23.00;90.60
58519;DHT22;44310;48.106;12.008;2022-07-24T01:33:51;23.00;90.40
58519;DHT22;44310;48.106;12.008;2022-07-24T01:36:18;23.00;90.40
58519;DHT22;44310;48.106;12.008;2022-07-24T01:38:46;23.00;90.40
58519;DHT22;44310;48.106;12.008;2022-07-24T01:41:15;23.00;90.30
58519;DHT22;44310;48.106;12.008;2022-07-24T01:43:43;23.00;90.30
58519;DHT22;44310;48.106;12.008;2022-07-24T01:46:10;23.00;90.30
58519;DHT22;44310;48.106;12.008;2022-07-24T01:48:41;23.00;90.30
58519;DHT22;44310;48.106;12.008;2022-07-24T01:51:09;22.90;90.20
58519;DHT22;44310;48.106;12.008;2022-07-24T01:53:37;23.00;90.20
58519;DHT22;44310;48.106;12.008;2022-07-24T01:56:04;23.00;90.20
58519;DHT22;44310;48.106;12.008;2022-07-24T01:58:32;23.00;90.10
58519;DHT22;44310;48.106;12.008;2022-07-24T02:01:01;23.00;90.10
58519;DHT22;44310;48.106;12.008;2022-07-24T02:03:29;23.00;90.10
58519;DHT22;44310;48.106;12.008;2022-07-24T02:05:56;23.00;90.00
58519;DHT22;44310;48.106;12.008;2022-07-24T02:08:23;23.00;90.00
58519;DHT22;44310;48.106;12.008;2022-07-24T02:10:51;23.00;89.80
58519;DHT22;44310;48.106;12.008;2022-07-24T02:13:18;23.00;90.00
58519;DHT22;44310;48.106;12.008;2022-07-24T02:15:46;23.00;90.10
58519;DHT22;44310;48.106;12.008;2022-07-24T02:18:13;23.10;90.20
58519;DHT22;44310;48.106;12.008;2022-07-24T02:20:40;23.10;90.30
58519;DHT22;44310;48.106;12.008;2022-07-24T02:23:08;23.10;90.40
58519;DHT22;44310;48.106;12.008;2022-07-24T02:25:35;23.10;90.60
58519;DHT22;44310;48.106;12.008;2022-07-24T02:28:02;23.10;90.80
58519;DHT22;44310;48.106;12.008;2022-07-24T02:30:30;23.10;90.90
58519;DHT22;44310;48.106;12.008;2022-07-24T02:32:58;23.10;91.00
58519;DHT22;44310;48.106;12.008;2022-07-24T02:35:25;23.10;91.00
58519;DHT22;44310;48.106;12.008;2022-07-24T02:37:52;23.10;90.90
58519;DHT22;44310;48.106;12.008;2022-07-24T02:40:20;23.10;91.00
58519;DHT22;44310;48.106;12.008;2022-07-24T02:42:47;23.00;91.00
58519;DHT22;44310;48.106;12.008;2022-07-24T02:45:14;23.10;91.00
58519;DHT22;44310;48.106;12.008;2022-07-24T02:47:50;23.00;91.00
58519;DHT22;44310;48.106;12.008;2022-07-24T02:50:19;23.00;91.00
58519;DHT22;44310;48.106;12.008;2022-07-24T02:52:47;23.00;90.90
58519;DHT22;44310;48.106;12.008;2022-07-24T02:55:15;23.00;90.90
58519;DHT22;44310;48.106;12.008;2022-07-24T02:57:42;23.00;90.80
58519;DHT22;44310;48.106;12.008;2022-07-24T03:00:13;23.00;90.70
58519;DHT22;44310;48.106;12.008;2022-07-24T03:02:40;23.00;90.60
58519;DHT22;44310;48.106;12.008;2022-07-24T03:05:08;23.00;90.60
58519;DHT22;44310;48.106;12.008;2022-07-24T03:07:36;23.00;90.60
58519;DHT22;44310;48.106;12.008;2022-07-24T03:10:05;22.90;90.60
58519;DHT22;44310;48.106;12.008;2022-07-24T03:12:33;22.90;90.50
58519;DHT22;44310;48.106;12.008;2022-07-24T03:15:01;22.90;90.40
58519;DHT22;44310;48.106;12.008;2022-07-24T03:17:28;22.90;90.40
58519;DHT22;44310;48.106;12.008;2022-07-24T03:19:55;22.90;90.30
58519;DHT22;44310;48.106;12.008;2022-07-24T03:22:23;22.90;90.20
58519;DHT22;44310;48.106;12.008;2022-07-24T03:24:50;22.90;90.20
58519;DHT22;44310;48.106;12.008;2022-07-24T03:27:17;22.90;90.20
58519;DHT22;44310;48.106;12.008;2022-07-24T03:29:45;22.90;90.10
58519;DHT22;44310;48.106;12.008;2022-07-24T03:32:12;22.90;90.00
58519;DHT22;44310;48.106;12.008;2022-07-24T03:34:39;22.90;90.00
58519;DHT22;44310;48.106;12.008;2022-07-24T03:37:07;22.90;89.90
58519;DHT22;44310;48.106;12.008;2022-07-24T03:39:34;22.90;89.90
58519;DHT22;44310;48.106;12.008;2022-07-24T03:42:02;22.90;89.80
58519;DHT22;44310;48.106;12.008;2022-07-24T03:44:29;22.90;89.80
58519;DHT22;44310;48.106;12.008;2022-07-24T03:46:56;22.90;89.60
58519;DHT22;44310;48.106;12.008;2022-07-24T03:49:24;22.90;89.50
58519;DHT22;44310;48.106;12.008;2022-07-24T03:51:51;22.90;89.40
58519;DHT22;44310;48.106;12.008;2022-07-24T03:54:21;22.90;89.30
58519;DHT22;44310;48.106;12.008;2022-07-24T03:56:49;22.90;89.30
58519;DHT22;44310;48.106;12.008;2022-07-24T03:59:17;22.90;89.10
58519;DHT22;44310;48.106;12.008;2022-07-24T04:01:45;22.90;89.00
58519;DHT22;44310;48.106;12.008;2022-07-24T04:04:12;22.90;89.00
58519;DHT22;44310;48.106;12.008;2022-07-24T04:06:40;22.90;88.90
58519;DHT22;44310;48.106;12.008;2022-07-24T04:09:09;22.90;89.10
58519;DHT22;44310;48.106;12.008;2022-07-24T04:11:36;22.90;89.10
58519;DHT22;44310;48.106;12.008;2022-07-24T04:14:04;22.90;89.10
58519;DHT22;44310;48.106;12.008;2022-07-24T04:16:32;23.00;89.10
58519;DHT22;44310;48.106;12.008;2022-07-24T04:18:59;23.00;89.10
58519;DHT22;44310;48.106;12.008;2022-07-24T04:21:33;22.90;88.60
58519;DHT22;44310;48.106;12.008;2022-07-24T04:24:00;22.90;88.40
58519;DHT22;44310;48.106;12.008;2022-07-24T04:26:27;22.90;88.30
58519;DHT22;44310;48.106;12.008;2022-07-24T04:28:54;22.90;88.20
58519;DHT22;44310;48.106;12.008;2022-07-24T04:31:22;22.90;88.20
58519;DHT22;44310;48.106;12.008;2022-07-24T04:33:54;22.90;88.30
58519;DHT22;44310;48.106;12.008;2022-07-24T04:36:21;22.90;88.30
58519;DHT22;44310;48.106;12.008;2022-07-24T04:38:49;22.90;88.20
58519;DHT22;44310;48.106;12.008;2022-07-24T04:41:16;22.90;88.20
58519;DHT22;44310;48.106;12.008;2022-07-24T04:43:44;22.90;88.10
58519;DHT22;44310;48.106;12.008;2022-07-24T04:46:12;22.90;88.00
58519;DHT22;44310;48.106;12.008;2022-07-24T04:48:39;22.90;87.90
58519;DHT22;44310;48.106;12.008;2022-07-24T04:51:07;22.90;87.80
58519;DHT22;44310;48.106;12.008;2022-07-24T04:53:34;22.90;87.70
58519;DHT22;44310;48.106;12.008;2022-07-24T04:56:02;22.90;88.10
58519;DHT22;44310;48.106;12.008;2022-07-24T04:58:30;22.90;88.50
58519;DHT22;44310;48.106;12.008;2022-07-24T05:00:57;22.90;88.20
58519;DHT22;44310;48.106;12.008;2022-07-24T05:03:25;22.90;88.10
58519;DHT22;44310;48.106;12.008;2022-07-24T05:05:53;22.90;87.90
58519;DHT22;44310;48.106;12.008;2022-07-24T05:08:20;22.90;87.90
58519;DHT22;44310;48.106;12.008;2022-07-24T05:10:47;22.90;87.90
58519;DHT22;44310;48.106;12.008;2022-07-24T05:13:15;22.90;87.90
58519;DHT22;44310;48.106;12.008;2022-07-24T05:15:43;22.90;87.80
58519;DHT22;44310;48.106;12.008;2022-07-24T05:18:10;22.90;87.80
58519;DHT22;44310;48.106;12.008;2022-07-24T05:20:38;22.90;87.90
58519;DHT22;44310;48.106;12.008;2022-07-24T05:23:05;22.90;87.80
58519;DHT22;44310;48.106;12.008;2022-07-24T05:25:32;22.90;88.20
58519;DHT22;44310;48.106;12.008;2022-07-24T05:28:00;23.00;89.20
58519;DHT22;44310;48.106;12.008;2022-07-24T05:30:27;23.10;89.80
58519;DHT22;44310;48.106;12.008;2022-07-24T05:32:55;23.00;89.50
58519;DHT22;44310;48.106;12.008;2022-07-24T05:35:22;23.10;89.70
58519;DHT22;44310;48.106;12.008;2022-07-24T05:37:55;23.10;89.90
58519;DHT22;44310;48.106;12.008;2022-07-24T05:40:23;23.00;89.80
58519;DHT22;44310;48.106;12.008;2022-07-24T05:42:50;23.00;90.00
58519;DHT22;44310;48.106;12.008;2022-07-24T05:45:18;23.10;90.00
58519;DHT22;44310;48.106;12.008;2022-07-24T05:47:45;23.10;90.00
58519;DHT22;44310;48.106;12.008;2022-07-24T05:50:13;23.10;90.10
58519;DHT22;44310;48.106;12.008;2022-07-24T05:52:41;23.00;90.10
58519;DHT22;44310;48.106;12.008;2022-07-24T05:55:09;23.10;90.40
58519;DHT22;44310;48.106;12.008;2022-07-24T05:57:45;23.10;90.10
58519;DHT22;44310;48.106;12.008;2022-07-24T06:00:14;23.00;90.10
58519;DHT22;44310;48.106;12.008;2022-07-24T06:02:44;23.10;90.10
58519;DHT22;44310;48.106;12.008;2022-07-24T06:05:15;23.10;90.10
58519;DHT22;44310;48.106;12.008;2022-07-24T06:07:44;23.00;90.10
58519;DHT22;44310;48.106;12.008;2022-07-24T06:10:11;23.00;90.10
58519;DHT22;44310;48.106;12.008;2022-07-24T06:12:42;23.10;90.10
58519;DHT22;44310;48.106;12.008;2022-07-24T06:15:10;23.00;90.10
58519;DHT22;44310;48.106;12.008;2022-07-24T06:17:38;23.00;90.10
58519;DHT22;44310;48.106;12.008;2022-07-24T06:20:07;23.10;90.10
58519;DHT22;44310;48.106;12.008;2022-07-24T06:22:34;23.10;90.10
58519;DHT22;44310;48.106;12.008;2022-07-24T06:25:02;23.10;90.10
58519;DHT22;44310;48.106;12.008;2022-07-24T06:27:29;23.10;90.10
58519;DHT22;44310;48.106;12.008;2022-07-24T06:29:56;23.10;90.10
58519;DHT22;44310;48.106;12.008;2022-07-24T06:32:24;23.10;90.10
58519;DHT22;44310;48.106;12.008;2022-07-24T06:34:51;23.10;90.00
58519;DHT22;44310;48.106;12.008;2022-07-24T06:37:19;23.10;90.10
58519;DHT22;44310;48.106;12.008;2022-07-24T06:39:46;23.10;90.10
58519;DHT22;44310;48.106;12.008;2022-07-24T06:42:14;23.10;90.20
58519;DHT22;44310;48.106;12.008;2022-07-24T06:44:41;23.10;90.20
58519;DHT22;44310;48.106;12.008;2022-07-24T06:47:08;23.10;90.20
58519;DHT22;44310;48.106;12.008;2022-07-24T06:49:36;23.10;90.30
58519;DHT22;44310;48.106;12.008;2022-07-24T06:52:03;23.10;90.30
58519;DHT22;44310;48.106;12.008;2022-07-24T06:54:31;23.10;90.10
58519;DHT22;44310;48.106;12.008;2022-07-24T06:56:58;23.10;90.10
58519;DHT22;44310;48.106;12.008;2022-07-24T06:59:25;23.00;88.90
58519;DHT22;44310;48.106;12.008;2022-07-24T07:01:53;23.00;89.20
58519;DHT22;44310;48.106;12.008;2022-07-24T07:04:20;23.00;89.00
58519;DHT22;44310;48.106;12.008;2022-07-24T07:06:48;23.00;89.00
58519;DHT22;44310;48.106;12.008;2022-07-24T07:09:15;23.00;89.30
58519;DHT22;44310;48.106;12.008;2022-07-24T07:11:43;23.10;89.60
58519;DHT22;44310;48.106;12.008;2022-07-24T07:14:18;23.10;89.70
58519;DHT22;44310;48.106;12.008;2022-07-24T07:16:46;23.10;89.90
58519;DHT22;44310;48.106;12.008;2022-07-24T07:19:13;23.20;89.90
58519;DHT22;44310;48.106;12.008;2022-07-24T07:21:41;23.20;90.00
58519;DHT22;44310;48.106;12.008;2022-07-24T07:24:08;23.20;90.10
58519;DHT22;44310;48.106;12.008;2022-07-24T07:26:35;23.20;90.30
58519;DHT22;44310;48.106;12.008;2022-07-24T07:29:03;23.20;90.00
58519;DHT22;44310;48.106;12.008;2022-07-24T07:31:31;23.20;90.00
58519;DHT22;44310;48.106;12.008;2022-07-24T07:33:59;23.20;89.40
58519;DHT22;44310;48.106;12.008;2022-07-24T07:36:27;23.20;89.60
58519;DHT22;44310;48.106;12.008;2022-07-24T07:38:54;23.10;89.40
58519;DHT22;44310;48.106;12.008;2022-07-24T07:41:22;23.10;89.30
58519;DHT22;44310;48.106;12.008;2022-07-24T07:43:50;23.00;89.10
58519;DHT22;44310;48.106;12.008;2022-07-24T07:46:18;23.00;89.00
58519;DHT22;44310;48.106;12.008;2022-07-24T07:48:45;22.90;89.40
58519;DHT22;44310;48.106;12.008;2022-07-24T07:51:13;22.90;89.00
58519;DHT22;44310;48.106;12.008;2022-07-24T07:53:41;22.90;89.20
58519;DHT22;44310;48.106;12.008;2022-07-24T07:56:08;22.90;89.10
58519;DHT22;44310;48.106;12.008;2022-07-24T07:58:36;22.90;88.90
58519;DHT22;44310;48.106;12.008;2022-07-24T08:01:03;22.90;88.70
58519;DHT22;44310;48.106;12.008;2022-07-24T08:03:30;22.90;89.10
58519;DHT22;44310;48.106;12.008;2022-07-24T08:05:59;22.90;89.20
58519;DHT22;44310;48.106;12.008;2022-07-24T08:08:27;22.90;89.40
58519;DHT22;44310;48.106;12.008;2022-07-24T08:10:55;22.90;89.10
58519;DHT22;44310;48.106;12.008;2022-07-24T08:13:22;22.90;88.90
58519;DHT22;44310;48.106;12.008;2022-07-24T08:15:50;22.90;88.80
58519;DHT22;44310;48.106;12.008;2022-07-24T08:18:17;22.90;88.80
58519;DHT22;44310;48.106;12.008;2022-07-24T08:20:45;22.80;88.70
58519;DHT22;44310;48.106;12.008;2022-07-24T08:23:12;22.90;89.00
58519;DHT22;44310;48.106;12.008;2022-07-24T08:25:40;22.90;89.00
58519;DHT22;44310;48.106;12.008;2022-07-24T08:28:07;22.80;89.10
58519;DHT22;44310;48.106;12.008;2022-07-24T08:30:34;22.80;89.10
58519;DHT22;44310;48.106;12.008;2022-07-24T08:33:02;22.80;89.10
58519;DHT22;44310;48.106;12.008;2022-07-24T08:35:29;22.80;89.10
58519;DHT22;44310;48.106;12.008;2022-07-24T08:38:00;22.80;89.20
58519;DHT22;44310;48.106;12.008;2022-07-24T08:40:38;22.80;89.10
58519;DHT22;44310;48.106;12.008;2022-07-24T08:43:07;22.80;89.10
58519;DHT22;44310;48.106;12.008;2022-07-24T08:45:37;22.80;88.80
58519;DHT22;44310;48.106;12.008;2022-07-24T08:48:06;22.80;88.90
58519;DHT22;44310;48.106;12.008;2022-07-24T08:50:36;22.70;89.10
58519;DHT22;44310;48.106;12.008;2022-07-24T08:53:04;22.70;89.00
58519;DHT22;44310;48.106;12.008;2022-07-24T08:55:32;22.70;88.90
58519;DHT22;44310;48.106;12.008;2022-07-24T08:58:00;22.70;88.70
58519;DHT22;44310;48.106;12.008;2022-07-24T09:00:29;22.70;88.70
58519;DHT22;44310;48.106;12.008;2022-07-24T09:02:57;22.80;88.70
58519;DHT22;44310;48.106;12.008;2022-07-24T09:05:25;22.70;88.50
58519;DHT22;44310;48.106;12.008;2022-07-24T09:08:09;22.70;88.50
58519;DHT22;44310;48.106;12.008;2022-07-24T09:10:37;22.70;88.70
58519;DHT22;44310;48.106;12.008;2022-07-24T09:13:16;22.70;88.70
58519;DHT22;44310;48.106;12.008;2022-07-24T09:15:48;22.70;89.10
58519;DHT22;44310;48.106;12.008;2022-07-24T09:20:55;22.70;88.40
58519;DHT22;44310;48.106;12.008;2022-07-24T09:23:23;22.70;88.70
58519;DHT22;44310;48.106;12.008;2022-07-24T09:25:52;22.70;88.30
58519;DHT22;44310;48.106;12.008;2022-07-24T09:28:20;22.70;88.20
58519;DHT22;44310;48.106;12.008;2022-07-24T09:30:48;22.70;87.90
58519;DHT22;44310;48.106;12.008;2022-07-24T09:33:18;22.70;88.20
58519;DHT22;44310;48.106;12.008;2022-07-24T09:35:52;22.70;88.00
58519;DHT22;44310;48.106;12.008;2022-07-24T09:38:24;22.70;88.00
58519;DHT22;44310;48.106;12.008;2022-07-24T09:40:54;22.70;87.00
58519;DHT22;44310;48.106;12.008;2022-07-24T09:46:09;22.70;87.20
58519;DHT22;44310;48.106;12.008;2022-07-24T09:48:54;22.70;87.20
58519;DHT22;44310;48.106;12.008;2022-07-24T09:51:25;22.70;84.30
58519;DHT22;44310;48.106;12.008;2022-07-24T09:53:55;22.80;84.30
58519;DHT22;44310;48.106;12.008;2022-07-24T09:56:23;23.00;86.80
58519;DHT22;44310;48.106;12.008;2022-07-24T09:58:53;23.10;87.60
58519;DHT22;44310;48.106;12.008;2022-07-24T10:01:23;23.20;89.90
58519;DHT22;44310;48.106;12.008;2022-07-24T10:03:53;23.30;90.30
58519;DHT22;44310;48.106;12.008;2022-07-24T10:06:23;23.30;90.70
58519;DHT22;44310;48.106;12.008;2022-07-24T10:08:54;23.30;90.80
58519;DHT22;44310;48.106;12.008;2022-07-24T10:11:22;23.30;91.10
58519;DHT22;44310;48.106;12.008;2022-07-24T10:13:50;23.30;91.20
58519;DHT22;44310;48.106;12.008;2022-07-24T10:16:29;23.30;91.50
58519;DHT22;44310;48.106;12.008;2022-07-24T10:19:02;23.30;91.50
58519;DHT22;44310;48.106;12.008;2022-07-24T10:21:34;23.30;91.60
58519;DHT22;44310;48.106;12.008;2022-07-24T10:26:47;23.30;91.80
58519;DHT22;44310;48.106;12.008;2022-07-24T10:29:20;23.30;91.80
58519;DHT22;44310;48.106;12.008;2022-07-24T10:31:50;23.30;91.80
58519;DHT22;44310;48.106;12.008;2022-07-24T10:34:53;23.30;91.80
58519;DHT22;44310;48.106;12.008;2022-07-24T10:37:33;23.30;91.90
58519;DHT22;44310;48.106;12.008;2022-07-24T10:53:28;23.30;92.50
58519;DHT22;44310;48.106;12.008;2022-07-24T10:56:38;23.30;92.60
58519;DHT22;44310;48.106;12.008;2022-07-24T10:59:08;23.30;92.60
58519;DHT22;44310;48.106;12.008;2022-07-24T11:01:45;23.30;92.60
58519;DHT22;44310;48.106;12.008;2022-07-24T11:07:07;23.30;92.60
58519;DHT22;44310;48.106;12.008;2022-07-24T11:10:02;23.30;92.60
58519;DHT22;44310;48.106;12.008;2022-07-24T11:12:41;23.30;92.60
58519;DHT22;44310;48.106;12.008;2022-07-24T11:15:14;23.30;92.70
58519;DHT22;44310;48.106;12.008;2022-07-24T11:18:15;23.30;92.70
58519;DHT22;44310;48.106;12.008;2022-07-24T11:20:43;23.30;92.60
58519;DHT22;44310;48.106;12.008;2022-07-24T11:23:20;23.30;92.60
58519;DHT22;44310;48.106;12.008;2022-07-24T11:25:49;23.30;92.70
58519;DHT22;44310;48.106;12.008;2022-07-24T11:28:17;23.30;92.60
58519;DHT22;44310;48.106;12.008;2022-07-24T11:30:46;23.30;92.60
58519;DHT22;44310;48.106;12.008;2022-07-24T11:33:20;23.30;92.60
58519;DHT22;44310;48.106;12.008;2022-07-24T11:35:48;23.30;92.60
58519;DHT22;44310;48.106;12.008;2022-07-24T11:38:16;23.30;92.70
58519;DHT22;44310;48.106;12.008;2022-07-24T11:40:43;23.30;92.70
58519;DHT22;44310;48.106;12.008;2022-07-24T11:43:10;23.30;92.70
58519;DHT22;44310;48.106;12.008;2022-07-24T11:45:39;23.30;92.60
58519;DHT22;44310;48.106;12.008;2022-07-24T11:48:17;23.30;92.50
58519;DHT22;44310;48.106;12.008;2022-07-24T11:50:45;23.30;92.60
58519;DHT22;44310;48.106;12.008;2022-07-24T11:53:12;23.30;92.90
58519;DHT22;44310;48.106;12.008;2022-07-24T11:55:39;23.30;92.50
58519;DHT22;44310;48.106;12.008;2022-07-24T11:58:07;23.30;92.30
58519;DHT22;44310;48.106;12.008;2022-07-24T12:00:54;23.30;92.50
58519;DHT22;44310;48.106;12.008;2022-07-24T12:03:23;23.30;92.50
58519;DHT22;44310;48.106;12.008;2022-07-24T12:05:51;23.30;92.40
58519;DHT22;44310;48.106;12.008;2022-07-24T12:08:22;23.30;92.20
58519;DHT22;44310;48.106;12.008;2022-07-24T12:10:58;23.30;92.00
58519;DHT22;44310;48.106;12.008;2022-07-24T12:13:29;23.20;91.80
58519;DHT22;44310;48.106;12.008;2022-07-24T12:15:58;23.20;91.60
58519;DHT22;44310;48.106;12.008;2022-07-24T12:18:25;23.30;92.00
58519;DHT22;44310;48.106;12.008;2022-07-24T12:21:00;23.30;92.00
58519;DHT22;44310;48.106;12.008;2022-07-24T12:23:28;23.40;92.20
58519;DHT22;44310;48.106;12.008;2022-07-24T12:26:00;23.40;92.00
58519;DHT22;44310;48.106;12.008;2022-07-24T12:28:28;23.40;92.10
58519;DHT22;44310;48.106;12.008;2022-07-24T12:30:55;23.40;92.20
58519;DHT22;44310;48.106;12.008;2022-07-24T12:33:27;23.40;92.20
58519;DHT22;44310;48.106;12.008;2022-07-24T12:36:10;23.50;92.10
58519;DHT22;44310;48.106;12.008;2022-07-24T12:38:41;23.50;92.30
58519;DHT22;44310;48.106;12.008;2022-07-24T12:41:13;23.40;92.00
58519;DHT22;44310;48.106;12.008;2022-07-24T12:46:24;23.50;92.30
58519;DHT22;44310;48.106;12.008;2022-07-24T12:49:09;23.50;92.20
58519;DHT22;44310;48.106;12.008;2022-07-24T12:54:19;23.50;92.20
58519;DHT22;44310;48.106;12.008;2022-07-24T12:56:49;23.50;92.30
58519;DHT22;44310;48.106;12.008;2022-07-24T12:59:30;23.40;92.20
58519;DHT22;44310;48.106;12.008;2022-07-24T13:02:02;23.40;92.10
58519;DHT22;44310;48.106;12.008;2022-07-24T13:04:30;23.40;92.10
58519;DHT22;44310;48.106;12.008;2022-07-24T13:06:59;23.40;92.20
58519;DHT22;44310;48.106;12.008;2022-07-24T13:09:28;23.40;92.20
58519;DHT22;44310;48.106;12.008;2022-07-24T13:12:05;23.40;92.10
58519;DHT22;44310;48.106;12.008;2022-07-24T13:14:33;23.40;92.00
58519;DHT22;44310;48.106;12.008;2022-07-24T13:17:12;23.40;92.00
58519;DHT22;44310;48.106;12.008;2022-07-24T13:19:48;23.40;92.00
58519;DHT22;44310;48.106;12.008;2022-07-24T13:22:16;23.40;92.00
58519;DHT22;44310;48.106;12.008;2022-07-24T13:24:44;23.50;91.90
58519;DHT22;44310;48.106;12.008;2022-07-24T13:27:13;23.50;91.90
58519;DHT22;44310;48.106;12.008;2022-07-24T13:29:42;23.50;91.80
58519;DHT22;44310;48.106;12.008;2022-07-24T13:32:10;23.40;91.80
58519;DHT22;44310;48.106;12.008;2022-07-24T13:34:37;23.50;91.80
58519;DHT22;44310;48.106;12.008;2022-07-24T13:37:05;23.50;91.70
58519;DHT22;44310;48.106;12.008;2022-07-24T13:39:34;23.50;91.70
58519;DHT22;44310;48.106;12.008;2022-07-24T13:42:04;23.50;91.30
58519;DHT22;44310;48.106;12.008;2022-07-24T13:44:32;23.50;91.40
58519;DHT22;44310;48.106;12.008;2022-07-24T13:46:59;23.50;91.40
58519;DHT22;44310;48.106;12.008;2022-07-24T13:49:27;23.50;91.60
58519;DHT22;44310;48.106;12.008;2022-07-24T13:51:54;23.50;91.40
58519;DHT22;44310;48.106;12.008;2022-07-24T13:54:22;23.60;91.30
58519;DHT22;44310;48.106;12.008;2022-07-24T13:56:50;23.50;91.40
58519;DHT22;44310;48.106;12.008;2022-07-24T13:59:17;23.50;91.40
58519;DHT22;44310;48.106;12.008;2022-07-24T14:01:44;23.50;91.40
58519;DHT22;44310;48.106;12.008;2022-07-24T14:04:12;23.50;91.30
58519;DHT22;44310;48.106;12.008;2022-07-24T14:06:57;23.60;91.40
58519;DHT22;44310;48.106;12.008;2022-07-24T14:09:25;23.60;91.40
58519;DHT22;44310;48.106;12.008;2022-07-24T14:11:53;23.50;91.30
58519;DHT22;44310;48.106;12.008;2022-07-24T14:14:21;23.60;91.30
58519;DHT22;44310;48.106;12.008;2022-07-24T14:16:48;23.60;91.20
58519;DHT22;44310;48.106;12.008;2022-07-24T14:19:16;23.60;91.10
58519;DHT22;44310;48.106;12.008;2022-07-24T14:21:44;23.60;91.20
58519;DHT22;44310;48.106;12.008;2022-07-24T14:24:15;23.60;91.10
58519;DHT22;44310;48.106;12.008;2022-07-24T14:26:44;23.60;91.10
58519;DHT22;44310;48.106;12.008;2022-07-24T14:29:12;23.60;91.20
58519;DHT22;44310;48.106;12.008;2022-07-24T14:31:39;23.60;91.20
58519;DHT22;44310;48.106;12.008;2022-07-24T14:34:07;23.60;91.30
58519;DHT22;44310;48.106;12.008;2022-07-24T14:36:35;23.60;91.20
58519;DHT22;44310;48.106;12.008;2022-07-24T14:39:04;23.60;91.20
58519;DHT22;44310;48.106;12.008;2022-07-24T14:41:31;23.60;91.20
58519;DHT22;44310;48.106;12.008;2022-07-24T14:43:58;23.60;91.30
58519;DHT22;44310;48.106;12.008;2022-07-24T14:46:33;23.60;91.40
58519;DHT22;44310;48.106;12.008;2022-07-24T14:49:00;23.60;91.50
58519;DHT22;44310;48.106;12.008;2022-07-24T14:51:28;23.60;91.40
58519;DHT22;44310;48.106;12.008;2022-07-24T14:53:55;23.60;91.50
58519;DHT22;44310;48.106;12.008;2022-07-24T14:56:22;23.60;91.40
58519;DHT22;44310;48.106;12.008;2022-07-24T14:58:54;23.60;91.30
58519;DHT22;44310;48.106;12.008;2022-07-24T15:01:21;23.50;91.40
58519;DHT22;44310;48.106;12.008;2022-07-24T15:03:49;23.50;91.30
58519;DHT22;44310;48.106;12.008;2022-07-24T15:06:18;23.60;91.30
58519;DHT22;44310;48.106;12.008;2022-07-24T15:08:45;23.60;91.30
58519;DHT22;44310;48.106;12.008;2022-07-24T15:11:13;23.60;91.40
58519;DHT22;44310;48.106;12.008;2022-07-24T15:13:40;23.60;91.40
58519;DHT22;44310;48.106;12.008;2022-07-24T15:16:08;23.60;91.30
58519;DHT22;44310;48.106;12.008;2022-07-24T15:18:36;23.60;91.40
58519;DHT22;44310;48.106;12.008;2022-07-24T15:21:05;23.60;91.40
58519;DHT22;44310;48.106;12.008;2022-07-24T15:23:32;23.60;91.50
58519;DHT22;44310;48.106;12.008;2022-07-24T15:26:00;23.60;91.50
58519;DHT22;44310;48.106;12.008;2022-07-24T15:28:27;23.60;91.50
58519;DHT22;44310;48.106;12.008;2022-07-24T15:30:55;23.60;91.50
58519;DHT22;44310;48.106;12.008;2022-07-24T15:33:23;23.60;91.50
58519;DHT22;44310;48.106;12.008;2022-07-24T15:35:51;23.50;91.40
58519;DHT22;44310;48.106;12.008;2022-07-24T15:38:19;23.60;91.50
58519;DHT22;44310;48.106;12.008;2022-07-24T15:40:46;23.60;91.50
58519;DHT22;44310;48.106;12.008;2022-07-24T15:43:16;23.50;91.40
58519;DHT22;44310;48.106;12.008;2022-07-24T15:45:44;23.50;91.40
58519;DHT22;44310;48.106;12.008;2022-07-24T15:48:12;23.50;91.60
58519;DHT22;44310;48.106;12.008;2022-07-24T15:50:39;23.50;91.60
58519;DHT22;44310;48.106;12.008;2022-07-24T15:53:06;23.60;91.50
58519;DHT22;44310;48.106;12.008;2022-07-24T15:55:34;23.50;91.50